sensor_id;sensor_type;location;lat;lon;timestamp;temperature;humidity
22035;DHT22;11181;51.002;4.356;2023-06-14T00:01:51;25.20;68.20
22035;DHT22;11181;51.002;4.356;2023-06-14T00:04:18;25.20;68.30
22035;DHT22;11181;51.002;4.356;2023-06-14T00:06:46;25.10;68.50
22035;DHT22;11181;51.002;4.356;2023-06-14T00:09:15;25.10;68.50
22035;DHT22;11181;51.002;4.356;2023-06-14T00:11:43;25.10;68.60
22035;DHT22;11181;51.002;4.356;2023-06-14T00:14:10;25.00;69.20
22035;DHT22;11181;51.002;4.356;2023-06-14T00:16:37;25.10;68.50
22035;DHT22;11181;51.002;4.356;2023-06-14T00:19:04;25.00;68.80
22035;DHT22;11181;51.002;4.356;2023-06-14T00:21:31;25.00;69.10
22035;DHT22;11181;51.002;4.356;2023-06-14T00:23:58;24.90;69.30
22035;DHT22;11181;51.002;4.356;2023-06-14T00:26:27;24.90;70.20
22035;DHT22;11181;51.002;4.356;2023-06-14T00:28:54;24.80;69.50
22035;DHT22;11181;51.002;4.356;2023-06-14T00:31:22;24.80;69.70
22035;DHT22;11181;51.002;4.356;2023-06-14T00:33:49;24.80;69.80
22035;DHT22;11181;51.002;4.356;2023-06-14T00:36:15;24.70;69.60
22035;DHT22;11181;51.002;4.356;2023-06-14T00:38:42;24.70;69.70
22035;DHT22;11181;51.002;4.356;2023-06-14T00:41:09;24.70;70.60
22035;DHT22;11181;51.002;4.356;2023-06-14T00:43:39;24.70;70.30
22035;DHT22;11181;51.002;4.356;2023-06-14T00:46:06;24.60;70.10
22035;DHT22;11181;51.002;4.356;2023-06-14T00:48:33;24.60;71.20
22035;DHT22;11181;51.002;4.356;2023-06-14T00:51:00;24.50;70.70
22035;DHT22;11181;51.002;4.356;2023-06-14T00:53:29;24.50;71.00
22035;DHT22;11181;51.002;4.356;2023-06-14T00:55:59;24.40;70.90
22035;DHT22;11181;51.002;4.356;2023-06-14T00:58:26;24.30;71.20
22035;DHT22;11181;51.002;4.356;2023-06-14T01:00:55;24.30;71.90
22035;DHT22;11181;51.002;4.356;2023-06-14T01:03:23;24.30;71.20
22035;DHT22;11181;51.002;4.356;2023-06-14T01:05:53;24.20;71.10
22035;DHT22;11181;51.002;4.356;2023-06-14T01:08:28;24.30;71.30
22035;DHT22;11181;51.002;4.356;2023-06-14T01:11:03;24.20;71.10
22035;DHT22;11181;51.002;4.356;2023-06-14T01:13:33;24.10;71.50
22035;DHT22;11181;51.002;4.356;2023-06-14T01:16:02;24.10;71.10
22035;DHT22;11181;51.002;4.356;2023-06-14T01:18:29;24.10;71.20
22035;DHT22;11181;51.002;4.356;2023-06-14T01:20:57;24.00;71.50
22035;DHT22;11181;51.002;4.356;2023-06-14T01:23:26;24.00;71.50
22035;DHT22;11181;51.002;4.356;2023-06-14T01:25:58;23.90;71.60
22035;DHT22;11181;51.002;4.356;2023-06-14T01:28:26;23.90;71.40
22035;DHT22;11181;51.002;4.356;2023-06-14T01:31:00;23.80;71.80
22035;DHT22;11181;51.002;4.356;2023-06-14T01:33:30;23.70;72.20
22035;DHT22;11181;51.002;4.356;2023-06-14T01:35:58;23.70;72.40
22035;DHT22;11181;51.002;4.356;2023-06-14T01:38:27;23.60;72.50
22035;DHT22;11181;51.002;4.356;2023-06-14T01:40:56;23.60;72.50
22035;DHT22;11181;51.002;4.356;2023-06-14T01:43:25;23.70;72.50
22035;DHT22;11181;51.002;4.356;2023-06-14T01:45:53;23.70;72.40
22035;DHT22;11181;51.002;4.356;2023-06-14T01:48:22;23.70;72.40
22035;DHT22;11181;51.002;4.356;2023-06-14T01:50:49;23.70;72.60
22035;DHT22;11181;51.002;4.356;2023-06-14T01:53:16;23.70;72.60
22035;DHT22;11181;51.002;4.356;2023-06-14T01:55:45;23.70;72.40
22035;DHT22;11181;51.002;4.356;2023-06-14T01:58:14;23.60;73.60
22035;DHT22;11181;51.002;4.356;2023-06-14T02:00:42;23.60;73.10
22035;DHT22;11181;51.002;4.356;2023-06-14T02:03:10;23.60;73.20
22035;DHT22;11181;51.002;4.356;2023-06-14T02:05:38;23.60;73.20
22035;DHT22;11181;51.002;4.356;2023-06-14T02:08:05;23.50;73.30
22035;DHT22;11181;51.002;4.356;2023-06-14T02:10:33;23.50;73.40
22035;DHT22;11181;51.002;4.356;2023-06-14T02:13:01;23.50;73.30
22035;DHT22;11181;51.002;4.356;2023-06-14T02:15:28;23.50;73.10
22035;DHT22;11181;51.002;4.356;2023-06-14T02:18:00;23.50;73.30
22035;DHT22;11181;51.002;4.356;2023-06-14T02:20:27;23.40;73.20
22035;DHT22;11181;51.002;4.356;2023-06-14T02:22:54;23.40;73.40
22035;DHT22;11181;51.002;4.356;2023-06-14T02:25:21;23.40;73.80
22035;DHT22;11181;51.002;4.356;2023-06-14T02:27:48;23.30;73.50
22035;DHT22;11181;51.002;4.356;2023-06-14T02:30:16;23.30;73.70
22035;DHT22;11181;51.002;4.356;2023-06-14T02:32:43;23.20;74.00
22035;DHT22;11181;51.002;4.356;2023-06-14T02:35:10;23.20;74.10
22035;DHT22;11181;51.002;4.356;2023-06-14T02:37:37;23.10;74.00
22035;DHT22;11181;51.002;4.356;2023-06-14T02:40:05;23.10;74.20
22035;DHT22;11181;51.002;4.356;2023-06-14T02:42:34;23.10;74.20
22035;DHT22;11181;51.002;4.356;2023-06-14T02:45:01;23.00;74.50
22035;DHT22;11181;51.002;4.356;2023-06-14T02:47:31;23.00;74.50
22035;DHT22;11181;51.002;4.356;2023-06-14T02:49:57;23.00;74.80
22035;DHT22;11181;51.002;4.356;2023-06-14T02:52:24;22.80;75.20
22035;DHT22;11181;51.002;4.356;2023-06-14T02:54:51;22.80;75.30
22035;DHT22;11181;51.002;4.356;2023-06-14T02:57:19;22.90;75.40
22035;DHT22;11181;51.002;4.356;2023-06-14T02:59:47;22.90;75.40
22035;DHT22;11181;51.002;4.356;2023-06-14T03:02:14;22.90;75.20
22035;DHT22;11181;51.002;4.356;2023-06-14T03:04:42;22.80;75.10
22035;DHT22;11181;51.002;4.356;2023-06-14T03:07:10;22.90;75.10
22035;DHT22;11181;51.002;4.356;2023-06-14T03:09:38;22.90;74.90
22035;DHT22;11181;51.002;4.356;2023-06-14T03:12:06;22.90;74.40
22035;DHT22;11181;51.002;4.356;2023-06-14T03:14:35;22.80;74.60
22035;DHT22;11181;51.002;4.356;2023-06-14T03:17:02;22.80;74.60
22035;DHT22;11181;51.002;4.356;2023-06-14T03:19:30;22.80;74.60
22035;DHT22;11181;51.002;4.356;2023-06-14T03:21:58;22.80;74.80
22035;DHT22;11181;51.002;4.356;2023-06-14T03:24:25;22.80;74.80
22035;DHT22;11181;51.002;4.356;2023-06-14T03:26:54;22.70;74.60
22035;DHT22;11181;51.002;4.356;2023-06-14T03:29:22;22.70;75.00
22035;DHT22;11181;51.002;4.356;2023-06-14T03:31:59;22.70;74.90
22035;DHT22;11181;51.002;4.356;2023-06-14T03:34:26;22.70;74.80
22035;DHT22;11181;51.002;4.356;2023-06-14T03:36:53;22.70;74.90
22035;DHT22;11181;51.002;4.356;2023-06-14T03:39:25;22.70;75.10
22035;DHT22;11181;51.002;4.356;2023-06-14T03:41:52;22.60;75.10
22035;DHT22;11181;51.002;4.356;2023-06-14T03:44:19;22.60;75.10
22035;DHT22;11181;51.002;4.356;2023-06-14T03:46:46;22.60;75.40
22035;DHT22;11181;51.002;4.356;2023-06-14T03:49:13;22.60;75.10
22035;DHT22;11181;51.002;4.356;2023-06-14T03:51:41;22.60;75.50
22035;DHT22;11181;51.002;4.356;2023-06-14T03:54:08;22.50;74.70
22035;DHT22;11181;51.002;4.356;2023-06-14T03:56:36;22.20;74.60
22035;DHT22;11181;51.002;4.356;2023-06-14T03:59:03;22.10;76.10
22035;DHT22;11181;51.002;4.356;2023-06-14T04:01:30;22.10;75.20
22035;DHT22;11181;51.002;4.356;2023-06-14T04:03:59;21.80;75.30
22035;DHT22;11181;51.002;4.356;2023-06-14T04:06:26;21.80;75.80
22035;DHT22;11181;51.002;4.356;2023-06-14T04:08:58;21.50;75.90
22035;DHT22;11181;51.002;4.356;2023-06-14T04:11:27;21.60;76.30
22035;DHT22;11181;51.002;4.356;2023-06-14T04:13:56;21.60;75.90
22035;DHT22;11181;51.002;4.356;2023-06-14T04:16:25;21.60;75.90
22035;DHT22;11181;51.002;4.356;2023-06-14T04:18:54;21.60;76.70
22035;DHT22;11181;51.002;4.356;2023-06-14T04:21:23;21.60;76.10
22035;DHT22;11181;51.002;4.356;2023-06-14T04:23:51;21.40;76.40
22035;DHT22;11181;51.002;4.356;2023-06-14T04:26:20;21.50;76.50
22035;DHT22;11181;51.002;4.356;2023-06-14T04:28:49;21.60;76.70
22035;DHT22;11181;51.002;4.356;2023-06-14T04:31:17;21.70;76.70
22035;DHT22;11181;51.002;4.356;2023-06-14T04:33:47;21.70;76.50
22035;DHT22;11181;51.002;4.356;2023-06-14T04:36:16;21.70;76.30
22035;DHT22;11181;51.002;4.356;2023-06-14T04:38:43;21.80;76.50
22035;DHT22;11181;51.002;4.356;2023-06-14T04:41:11;21.80;76.70
22035;DHT22;11181;51.002;4.356;2023-06-14T04:43:39;21.90;76.70
22035;DHT22;11181;51.002;4.356;2023-06-14T04:46:06;21.90;76.80
22035;DHT22;11181;51.002;4.356;2023-06-14T04:48:37;21.90;76.90
22035;DHT22;11181;51.002;4.356;2023-06-14T04:51:06;21.90;76.70
22035;DHT22;11181;51.002;4.356;2023-06-14T04:53:33;22.00;76.90
22035;DHT22;11181;51.002;4.356;2023-06-14T04:56:00;22.00;76.90
22035;DHT22;11181;51.002;4.356;2023-06-14T04:58:28;21.90;76.50
22035;DHT22;11181;51.002;4.356;2023-06-14T05:00:56;21.60;77.00
22035;DHT22;11181;51.002;4.356;2023-06-14T05:03:24;21.50;77.60
22035;DHT22;11181;51.002;4.356;2023-06-14T05:05:53;21.60;78.60
22035;DHT22;11181;51.002;4.356;2023-06-14T05:08:20;21.80;77.30
22035;DHT22;11181;51.002;4.356;2023-06-14T05:10:49;21.70;77.10
22035;DHT22;11181;51.002;4.356;2023-06-14T05:13:16;21.80;77.20
22035;DHT22;11181;51.002;4.356;2023-06-14T05:15:43;21.80;77.20
22035;DHT22;11181;51.002;4.356;2023-06-14T05:18:10;21.60;78.00
22035;DHT22;11181;51.002;4.356;2023-06-14T05:20:38;21.50;78.40
22035;DHT22;11181;51.002;4.356;2023-06-14T05:23:09;21.60;78.50
22035;DHT22;11181;51.002;4.356;2023-06-14T05:25:41;21.50;78.40
22035;DHT22;11181;51.002;4.356;2023-06-14T05:28:08;21.50;77.90
22035;DHT22;11181;51.002;4.356;2023-06-14T05:30:35;21.60;78.60
22035;DHT22;11181;51.002;4.356;2023-06-14T05:33:02;21.50;78.50
22035;DHT22;11181;51.002;4.356;2023-06-14T05:35:29;21.20;79.20
22035;DHT22;11181;51.002;4.356;2023-06-14T05:37:56;21.20;79.80
22035;DHT22;11181;51.002;4.356;2023-06-14T05:40:25;21.30;79.80
22035;DHT22;11181;51.002;4.356;2023-06-14T05:42:52;21.30;79.70
22035;DHT22;11181;51.002;4.356;2023-06-14T05:45:18;21.50;80.40
22035;DHT22;11181;51.002;4.356;2023-06-14T05:47:45;21.80;80.50
22035;DHT22;11181;51.002;4.356;2023-06-14T05:50:13;22.00;80.50
22035;DHT22;11181;51.002;4.356;2023-06-14T05:52:40;22.10;79.80
22035;DHT22;11181;51.002;4.356;2023-06-14T05:55:07;22.30;79.10
22035;DHT22;11181;51.002;4.356;2023-06-14T05:57:39;22.40;79.30
22035;DHT22;11181;51.002;4.356;2023-06-14T06:00:08;22.60;78.70
22035;DHT22;11181;51.002;4.356;2023-06-14T06:02:39;22.80;78.80
22035;DHT22;11181;51.002;4.356;2023-06-14T06:05:07;22.90;78.40
22035;DHT22;11181;51.002;4.356;2023-06-14T06:07:34;23.00;78.40
22035;DHT22;11181;51.002;4.356;2023-06-14T06:10:01;23.10;77.30
22035;DHT22;11181;51.002;4.356;2023-06-14T06:12:28;23.00;77.70
22035;DHT22;11181;51.002;4.356;2023-06-14T06:14:56;23.00;77.80
22035;DHT22;11181;51.002;4.356;2023-06-14T06:17:24;23.10;78.20
22035;DHT22;11181;51.002;4.356;2023-06-14T06:19:51;23.00;77.10
22035;DHT22;11181;51.002;4.356;2023-06-14T06:22:18;23.00;77.30
22035;DHT22;11181;51.002;4.356;2023-06-14T06:24:45;23.20;78.00
22035;DHT22;11181;51.002;4.356;2023-06-14T06:27:12;23.40;77.50
22035;DHT22;11181;51.002;4.356;2023-06-14T06:29:39;23.50;77.70
22035;DHT22;11181;51.002;4.356;2023-06-14T06:32:08;23.60;76.70
22035;DHT22;11181;51.002;4.356;2023-06-14T06:34:35;23.70;77.70
22035;DHT22;11181;51.002;4.356;2023-06-14T06:37:03;23.90;77.60
22035;DHT22;11181;51.002;4.356;2023-06-14T06:39:30;24.20;77.80
22035;DHT22;11181;51.002;4.356;2023-06-14T06:41:56;24.50;78.70
22035;DHT22;11181;51.002;4.356;2023-06-14T06:44:23;24.80;76.40
22035;DHT22;11181;51.002;4.356;2023-06-14T06:46:50;25.00;76.10
22035;DHT22;11181;51.002;4.356;2023-06-14T06:49:19;25.10;74.60
22035;DHT22;11181;51.002;4.356;2023-06-14T06:51:59;25.10;75.50
22035;DHT22;11181;51.002;4.356;2023-06-14T06:54:27;25.20;74.80
22035;DHT22;11181;51.002;4.356;2023-06-14T06:56:53;25.20;75.10
22035;DHT22;11181;51.002;4.356;2023-06-14T06:59:20;25.30;76.40
22035;DHT22;11181;51.002;4.356;2023-06-14T07:01:47;25.70;76.10
22035;DHT22;11181;51.002;4.356;2023-06-14T07:04:14;25.90;75.30
22035;DHT22;11181;51.002;4.356;2023-06-14T07:06:43;26.00;73.90
22035;DHT22;11181;51.002;4.356;2023-06-14T07:09:10;26.10;75.20
22035;DHT22;11181;51.002;4.356;2023-06-14T07:11:39;26.40;74.50
22035;DHT22;11181;51.002;4.356;2023-06-14T07:14:06;26.40;73.40
22035;DHT22;11181;51.002;4.356;2023-06-14T07:16:34;26.40;74.00
22035;DHT22;11181;51.002;4.356;2023-06-14T07:19:01;26.30;73.40
22035;DHT22;11181;51.002;4.356;2023-06-14T07:21:28;26.40;74.30
22035;DHT22;11181;51.002;4.356;2023-06-14T07:23:56;26.40;73.70
22035;DHT22;11181;51.002;4.356;2023-06-14T07:26:23;26.30;73.60
22035;DHT22;11181;51.002;4.356;2023-06-14T07:28:50;26.40;73.70
22035;DHT22;11181;51.002;4.356;2023-06-14T07:31:18;26.40;73.60
22035;DHT22;11181;51.002;4.356;2023-06-14T07:33:45;26.60;73.80
22035;DHT22;11181;51.002;4.356;2023-06-14T07:36:12;26.80;74.00
22035;DHT22;11181;51.002;4.356;2023-06-14T07:38:39;26.90;74.00
22035;DHT22;11181;51.002;4.356;2023-06-14T07:41:08;27.20;72.60
22035;DHT22;11181;51.002;4.356;2023-06-14T07:43:34;27.40;72.40
22035;DHT22;11181;51.002;4.356;2023-06-14T07:46:01;27.40;72.00
22035;DHT22;11181;51.002;4.356;2023-06-14T07:48:28;27.70;73.10
22035;DHT22;11181;51.002;4.356;2023-06-14T07:50:56;28.00;71.90
22035;DHT22;11181;51.002;4.356;2023-06-14T07:53:23;28.00;69.80
22035;DHT22;11181;51.002;4.356;2023-06-14T07:55:50;28.10;69.80
22035;DHT22;11181;51.002;4.356;2023-06-14T07:58:19;28.20;71.80
22035;DHT22;11181;51.002;4.356;2023-06-14T08:00:46;28.20;68.60
22035;DHT22;11181;51.002;4.356;2023-06-14T08:03:13;28.40;69.60
22035;DHT22;11181;51.002;4.356;2023-06-14T08:05:40;28.30;69.10
22035;DHT22;11181;51.002;4.356;2023-06-14T08:08:06;28.40;69.70
22035;DHT22;11181;51.002;4.356;2023-06-14T08:10:33;28.60;67.80
22035;DHT22;11181;51.002;4.356;2023-06-14T08:13:00;28.70;66.60
22035;DHT22;11181;51.002;4.356;2023-06-14T08:15:29;28.50;68.10
22035;DHT22;11181;51.002;4.356;2023-06-14T08:17:56;28.30;67.30
22035;DHT22;11181;51.002;4.356;2023-06-14T08:20:25;28.40;68.00
22035;DHT22;11181;51.002;4.356;2023-06-14T08:22:52;28.20;70.70
22035;DHT22;11181;51.002;4.356;2023-06-14T08:25:22;28.50;71.20
22035;DHT22;11181;51.002;4.356;2023-06-14T08:27:49;28.60;71.40
22035;DHT22;11181;51.002;4.356;2023-06-14T08:30:16;28.70;71.20
22035;DHT22;11181;51.002;4.356;2023-06-14T08:32:44;28.90;72.70
22035;DHT22;11181;51.002;4.356;2023-06-14T08:35:11;29.20;70.80
22035;DHT22;11181;51.002;4.356;2023-06-14T08:37:40;29.20;70.20
22035;DHT22;11181;51.002;4.356;2023-06-14T08:40:17;29.20;71.20
22035;DHT22;11181;51.002;4.356;2023-06-14T08:42:45;29.40;68.90
22035;DHT22;11181;51.002;4.356;2023-06-14T08:45:14;29.30;67.80
22035;DHT22;11181;51.002;4.356;2023-06-14T08:47:41;29.10;68.40
22035;DHT22;11181;51.002;4.356;2023-06-14T08:50:10;28.90;69.20
22035;DHT22;11181;51.002;4.356;2023-06-14T08:52:38;28.90;69.00
22035;DHT22;11181;51.002;4.356;2023-06-14T08:55:11;28.90;69.60
22035;DHT22;11181;51.002;4.356;2023-06-14T08:57:39;29.20;69.80
22035;DHT22;11181;51.002;4.356;2023-06-14T09:00:07;29.50;71.40
22035;DHT22;11181;51.002;4.356;2023-06-14T09:02:38;29.90;67.80
22035;DHT22;11181;51.002;4.356;2023-06-14T09:05:10;29.60;67.30
22035;DHT22;11181;51.002;4.356;2023-06-14T09:07:39;29.70;67.20
22035;DHT22;11181;51.002;4.356;2023-06-14T09:10:08;29.90;66.60
22035;DHT22;11181;51.002;4.356;2023-06-14T09:12:36;29.10;66.40
22035;DHT22;11181;51.002;4.356;2023-06-14T09:15:04;28.80;69.20
22035;DHT22;11181;51.002;4.356;2023-06-14T09:17:32;29.10;67.30
22035;DHT22;11181;51.002;4.356;2023-06-14T09:20:01;28.90;67.40
22035;DHT22;11181;51.002;4.356;2023-06-14T09:22:32;29.00;68.90
22035;DHT22;11181;51.002;4.356;2023-06-14T09:24:59;29.50;68.70
22035;DHT22;11181;51.002;4.356;2023-06-14T09:27:28;29.50;66.50
22035;DHT22;11181;51.002;4.356;2023-06-14T09:29:55;29.70;67.40
22035;DHT22;11181;51.002;4.356;2023-06-14T09:32:22;30.10;67.90
22035;DHT22;11181;51.002;4.356;2023-06-14T09:34:50;30.30;66.10
22035;DHT22;11181;51.002;4.356;2023-06-14T09:37:30;30.70;66.50
22035;DHT22;11181;51.002;4.356;2023-06-14T09:39:59;31.10;65.10
22035;DHT22;11181;51.002;4.356;2023-06-14T09:42:26;31.40;67.30
22035;DHT22;11181;51.002;4.356;2023-06-14T09:44:55;31.20;63.00
22035;DHT22;11181;51.002;4.356;2023-06-14T09:47:22;31.10;62.70
22035;DHT22;11181;51.002;4.356;2023-06-14T09:49:50;31.20;62.50
22035;DHT22;11181;51.002;4.356;2023-06-14T09:52:19;31.50;63.10
22035;DHT22;11181;51.002;4.356;2023-06-14T09:54:47;31.70;63.80
22035;DHT22;11181;51.002;4.356;2023-06-14T09:57:21;31.80;63.10
22035;DHT22;11181;51.002;4.356;2023-06-14T09:59:49;32.10;62.10
22035;DHT22;11181;51.002;4.356;2023-06-14T10:02:24;32.20;60.90
22035;DHT22;11181;51.002;4.356;2023-06-14T10:04:58;32.20;59.20
22035;DHT22;11181;51.002;4.356;2023-06-14T10:07:26;32.10;60.30
22035;DHT22;11181;51.002;4.356;2023-06-14T10:09:57;31.80;59.10
22035;DHT22;11181;51.002;4.356;2023-06-14T10:12:26;31.70;58.50
22035;DHT22;11181;51.002;4.356;2023-06-14T10:14:53;31.50;58.60
22035;DHT22;11181;51.002;4.356;2023-06-14T10:17:25;31.50;57.80
22035;DHT22;11181;51.002;4.356;2023-06-14T10:20:06;31.40;58.30
22035;DHT22;11181;51.002;4.356;2023-06-14T10:22:45;31.20;57.60
22035;DHT22;11181;51.002;4.356;2023-06-14T10:25:13;31.10;58.50
22035;DHT22;11181;51.002;4.356;2023-06-14T10:28:02;31.10;58.90
22035;DHT22;11181;51.002;4.356;2023-06-14T10:30:29;31.60;60.20
22035;DHT22;11181;51.002;4.356;2023-06-14T10:33:06;32.00;59.00
22035;DHT22;11181;51.002;4.356;2023-06-14T10:35:33;32.30;58.40
22035;DHT22;11181;51.002;4.356;2023-06-14T10:38:07;32.80;59.10
22035;DHT22;11181;51.002;4.356;2023-06-14T10:40:36;33.10;58.10
22035;DHT22;11181;51.002;4.356;2023-06-14T10:43:23;33.10;57.80
22035;DHT22;11181;51.002;4.356;2023-06-14T10:46:15;33.20;58.00
22035;DHT22;11181;51.002;4.356;2023-06-14T10:48:43;32.80;56.20
22035;DHT22;11181;51.002;4.356;2023-06-14T10:51:16;33.00;57.40
22035;DHT22;11181;51.002;4.356;2023-06-14T10:53:47;33.20;57.80
22035;DHT22;11181;51.002;4.356;2023-06-14T10:56:27;33.60;56.70
22035;DHT22;11181;51.002;4.356;2023-06-14T10:58:57;33.30;55.10
22035;DHT22;11181;51.002;4.356;2023-06-14T11:01:32;32.70;55.30
22035;DHT22;11181;51.002;4.356;2023-06-14T11:04:11;32.60;56.50
22035;DHT22;11181;51.002;4.356;2023-06-14T11:06:48;32.40;55.10
22035;DHT22;11181;51.002;4.356;2023-06-14T11:09:41;32.10;56.00
22035;DHT22;11181;51.002;4.356;2023-06-14T11:12:12;31.80;55.60
22035;DHT22;11181;51.002;4.356;2023-06-14T11:14:43;32.30;57.00
22035;DHT22;11181;51.002;4.356;2023-06-14T11:17:18;32.80;55.40
22035;DHT22;11181;51.002;4.356;2023-06-14T11:19:45;32.40;54.90
22035;DHT22;11181;51.002;4.356;2023-06-14T11:22:12;32.30;55.40
22035;DHT22;11181;51.002;4.356;2023-06-14T11:24:42;32.60;55.00
22035;DHT22;11181;51.002;4.356;2023-06-14T11:27:09;32.50;54.10
22035;DHT22;11181;51.002;4.356;2023-06-14T11:29:37;32.80;55.80
22035;DHT22;11181;51.002;4.356;2023-06-14T11:32:08;33.30;56.20
22035;DHT22;11181;51.002;4.356;2023-06-14T11:34:37;33.40;54.90
22035;DHT22;11181;51.002;4.356;2023-06-14T11:37:05;33.40;54.50
22035;DHT22;11181;51.002;4.356;2023-06-14T11:39:32;33.80;54.90
22035;DHT22;11181;51.002;4.356;2023-06-14T11:42:02;33.70;53.80
22035;DHT22;11181;51.002;4.356;2023-06-14T11:44:29;33.90;53.50
22035;DHT22;11181;51.002;4.356;2023-06-14T11:46:56;34.00;54.50
22035;DHT22;11181;51.002;4.356;2023-06-14T11:49:25;33.80;54.00
22035;DHT22;11181;51.002;4.356;2023-06-14T11:51:53;33.70;52.70
22035;DHT22;11181;51.002;4.356;2023-06-14T11:54:20;33.30;54.20
22035;DHT22;11181;51.002;4.356;2023-06-14T11:56:47;33.40;55.30
22035;DHT22;11181;51.002;4.356;2023-06-14T11:59:14;33.20;53.20
22035;DHT22;11181;51.002;4.356;2023-06-14T12:01:43;33.60;53.30
22035;DHT22;11181;51.002;4.356;2023-06-14T12:04:11;32.80;53.70
22035;DHT22;11181;51.002;4.356;2023-06-14T12:06:39;32.90;53.50
22035;DHT22;11181;51.002;4.356;2023-06-14T12:09:07;33.40;53.90
22035;DHT22;11181;51.002;4.356;2023-06-14T12:11:39;33.60;53.20
22035;DHT22;11181;51.002;4.356;2023-06-14T12:14:06;34.00;53.30
22035;DHT22;11181;51.002;4.356;2023-06-14T12:16:34;34.50;53.00
22035;DHT22;11181;51.002;4.356;2023-06-14T12:19:11;34.40;51.30
22035;DHT22;11181;51.002;4.356;2023-06-14T12:21:40;34.80;53.80
22035;DHT22;11181;51.002;4.356;2023-06-14T12:24:08;35.00;52.30
22035;DHT22;11181;51.002;4.356;2023-06-14T12:26:38;35.20;53.00
22035;DHT22;11181;51.002;4.356;2023-06-14T12:29:07;35.20;52.80
22035;DHT22;11181;51.002;4.356;2023-06-14T12:31:34;35.30;51.40
22035;DHT22;11181;51.002;4.356;2023-06-14T12:34:01;35.50;52.70
22035;DHT22;11181;51.002;4.356;2023-06-14T12:36:28;35.40;50.50
22035;DHT22;11181;51.002;4.356;2023-06-14T12:38:56;34.90;50.30
22035;DHT22;11181;51.002;4.356;2023-06-14T12:41:23;34.90;52.60
22035;DHT22;11181;51.002;4.356;2023-06-14T12:43:52;35.20;54.50
22035;DHT22;11181;51.002;4.356;2023-06-14T12:46:18;35.30;52.40
22035;DHT22;11181;51.002;4.356;2023-06-14T12:48:46;35.20;52.30
22035;DHT22;11181;51.002;4.356;2023-06-14T12:51:13;34.60;50.10
22035;DHT22;11181;51.002;4.356;2023-06-14T12:53:40;34.80;51.80
22035;DHT22;11181;51.002;4.356;2023-06-14T12:56:08;34.50;51.30
22035;DHT22;11181;51.002;4.356;2023-06-14T12:58:35;34.50;53.00
22035;DHT22;11181;51.002;4.356;2023-06-14T13:01:02;33.80;52.80
22035;DHT22;11181;51.002;4.356;2023-06-14T13:03:29;34.10;53.50
22035;DHT22;11181;51.002;4.356;2023-06-14T13:05:56;34.80;51.80
22035;DHT22;11181;51.002;4.356;2023-06-14T13:08:22;35.30;52.10
22035;DHT22;11181;51.002;4.356;2023-06-14T13:10:49;35.80;52.40
22035;DHT22;11181;51.002;4.356;2023-06-14T13:13:18;36.00;50.90
22035;DHT22;11181;51.002;4.356;2023-06-14T13:15:44;36.00;50.90
22035;DHT22;11181;51.002;4.356;2023-06-14T13:18:12;35.60;52.10
22035;DHT22;11181;51.002;4.356;2023-06-14T13:20:39;35.10;49.60
22035;DHT22;11181;51.002;4.356;2023-06-14T13:23:06;34.80;49.80
22035;DHT22;11181;51.002;4.356;2023-06-14T13:25:34;34.90;51.00
22035;DHT22;11181;51.002;4.356;2023-06-14T13:28:01;35.20;52.20
22035;DHT22;11181;51.002;4.356;2023-06-14T13:30:29;34.90;50.70
22035;DHT22;11181;51.002;4.356;2023-06-14T13:32:56;34.60;51.00
22035;DHT22;11181;51.002;4.356;2023-06-14T13:35:24;34.50;51.40
22035;DHT22;11181;51.002;4.356;2023-06-14T13:37:51;34.80;51.40
22035;DHT22;11181;51.002;4.356;2023-06-14T13:40:18;35.20;51.10
22035;DHT22;11181;51.002;4.356;2023-06-14T13:42:46;35.40;49.00
22035;DHT22;11181;51.002;4.356;2023-06-14T13:45:14;35.30;49.70
22035;DHT22;11181;51.002;4.356;2023-06-14T13:47:43;34.80;48.50
22035;DHT22;11181;51.002;4.356;2023-06-14T13:50:10;34.70;48.50
22035;DHT22;11181;51.002;4.356;2023-06-14T13:52:38;34.60;48.20
22035;DHT22;11181;51.002;4.356;2023-06-14T13:55:06;34.50;49.00
22035;DHT22;11181;51.002;4.356;2023-06-14T13:57:33;34.70;48.90
22035;DHT22;11181;51.002;4.356;2023-06-14T14:00:00;34.80;48.10
22035;DHT22;11181;51.002;4.356;2023-06-14T14:02:28;34.80;47.40
22035;DHT22;11181;51.002;4.356;2023-06-14T14:04:57;34.10;47.40
22035;DHT22;11181;51.002;4.356;2023-06-14T14:07:24;34.30;49.20
22035;DHT22;11181;51.002;4.356;2023-06-14T14:09:51;34.20;49.50
22035;DHT22;11181;51.002;4.356;2023-06-14T14:12:19;34.10;49.40
22035;DHT22;11181;51.002;4.356;2023-06-14T14:14:45;34.50;49.00
22035;DHT22;11181;51.002;4.356;2023-06-14T14:17:13;34.40;47.40
22035;DHT22;11181;51.002;4.356;2023-06-14T14:19:39;34.40;47.50
22035;DHT22;11181;51.002;4.356;2023-06-14T14:22:08;34.30;48.80
22035;DHT22;11181;51.002;4.356;2023-06-14T14:24:35;34.10;48.80
22035;DHT22;11181;51.002;4.356;2023-06-14T14:27:02;33.80;49.50
22035;DHT22;11181;51.002;4.356;2023-06-14T14:29:28;34.10;50.30
22035;DHT22;11181;51.002;4.356;2023-06-14T14:31:55;34.00;49.20
22035;DHT22;11181;51.002;4.356;2023-06-14T14:34:22;33.90;48.80
22035;DHT22;11181;51.002;4.356;2023-06-14T14:36:49;33.90;48.60
22035;DHT22;11181;51.002;4.356;2023-06-14T14:39:18;33.90;48.20
22035;DHT22;11181;51.002;4.356;2023-06-14T14:41:44;34.20;48.50
22035;DHT22;11181;51.002;4.356;2023-06-14T14:44:11;34.40;47.80
22035;DHT22;11181;51.002;4.356;2023-06-14T14:46:38;34.10;47.30
22035;DHT22;11181;51.002;4.356;2023-06-14T14:49:05;34.20;48.10
22035;DHT22;11181;51.002;4.356;2023-06-14T14:51:32;34.40;48.50
22035;DHT22;11181;51.002;4.356;2023-06-14T14:53:59;34.60;48.30
22035;DHT22;11181;51.002;4.356;2023-06-14T14:56:27;34.80;48.80
22035;DHT22;11181;51.002;4.356;2023-06-14T14:58:54;35.10;47.50
22035;DHT22;11181;51.002;4.356;2023-06-14T15:01:22;35.20;47.70
22035;DHT22;11181;51.002;4.356;2023-06-14T15:03:50;35.20;47.60
22035;DHT22;11181;51.002;4.356;2023-06-14T15:06:17;35.30;46.70
22035;DHT22;11181;51.002;4.356;2023-06-14T15:08:45;34.60;46.40
22035;DHT22;11181;51.002;4.356;2023-06-14T15:11:14;33.40;47.80
22035;DHT22;11181;51.002;4.356;2023-06-14T15:13:42;33.30;49.10
22035;DHT22;11181;51.002;4.356;2023-06-14T15:16:09;33.20;48.30
22035;DHT22;11181;51.002;4.356;2023-06-14T15:18:36;33.30;50.10
22035;DHT22;11181;51.002;4.356;2023-06-14T15:21:03;33.80;50.30
22035;DHT22;11181;51.002;4.356;2023-06-14T15:23:30;34.20;50.10
22035;DHT22;11181;51.002;4.356;2023-06-14T15:25:57;34.30;49.80
22035;DHT22;11181;51.002;4.356;2023-06-14T15:28:24;34.10;48.40
22035;DHT22;11181;51.002;4.356;2023-06-14T15:30:55;34.10;48.60
22035;DHT22;11181;51.002;4.356;2023-06-14T15:33:22;34.10;48.80
22035;DHT22;11181;51.002;4.356;2023-06-14T15:35:49;34.10;48.40
22035;DHT22;11181;51.002;4.356;2023-06-14T15:38:16;34.20;48.90